Pagrindinis puslapis
METAR-TAF:

METAR-TAF

Oro uostai :

Haidarabadas, Indija

platuma: 17-27N, ilguma: 078-28E, Aukštis: 530 m

Dabartinis oras

Ataskaita buvo paskelbta 18 minutes, ne 12:30 UTC
Vėjas 3 kt iš Rytų/Šiaurės Rytų
Temperatūra 27°C
Drėgmė 74%
Slėgis 1015 hPa
Matomumas: 5000 m
Mažai debesys ne aukštis 2000 ft
Su prošvaistėmis ne aukštis 10000 ft
migla

METAR: VOHY 151230Z 07003KT 5000 HZ FEW020 BKN100 27/22 Q1015 BECMG 3000 HZ

Laikas: 18:18 (12:48 UTC)

Prognozė

Ataskaita buvo paskelbta 1 valandą ir 48 minutes, ne 11:00 UTC
Prognozė galioja nuo 15 metu 12 UTC su 15 metu 21 UTC
Vėjas 8 kt iš Rytų
Matomumas: 5000 m
Išsisklaidę debesys ne aukštis 1500 ft
Su prošvaistėmis ne aukštis 10000 ft
migla

TAF: VOHY 151100Z 1512/1521 08008KT 5000 HZ SCT015 BKN100

Orai ataskaitas ir orų prognozės (METAR, TAF).

turimą stotys yra geltonos ir raudonos taškus žemėlapyje.

Perkelti pele per norėdami pamatyti stoties vardą.

Tada spustelėkite, norėdami matyti oro stebėjimo ir prognozės.

Norėdami pakeisti žemėlapį: spustelėkite ant žalios mygtukų su juodo kryžiaus žemyn,; žalią mygtuką su brūkšneliu, jei norite nutolinti; arba žalių rodyklių gretimoms žemėlapius.


METAR-TAF: